Time;durP1;ratioP1;P1;durP2;ratioP2;P2;SDS_P1;SDS_P2;PMS_P1;PMS_P2;Temp;Humidity;BMP_temperature;BMP_pressure;BME280_temperature;BME280_humidity;BME280_pressure;Samples;Min_cycle;Max_cycle;Signal;HPM_P1;HPM_P2
2022/01/24 00:00:07;;;;;;;21.17;11.10;;;;;;;;;;5052189;28;20503;-70
2022/01/24 00:02:33;;;;;;;19.88;9.68;;;;;;;;;;5052361;28;20486;-71
2022/01/24 00:04:59;;;;;;;18.42;10.57;;;;;;;;;;5051983;28;20025;-70
2022/01/24 00:07:25;;;;;;;19.30;10.18;;;;;;;;;;5046226;28;20028;-69
2022/01/24 00:09:54;;;;;;;17.88;9.00;;;;;;;;;;5041920;28;20017;-70
2022/01/24 00:12:35;;;;;;;22.48;12.95;;;;;;;;;;5038484;28;20108;-72
2022/01/24 00:15:12;;;;;;;15.45;7.97;;;;;;;;;;5048971;28;20120;-70
2022/01/24 00:17:42;;;;;;;16.42;8.35;;;;;;;;;;5040385;28;20470;-70
2022/01/24 00:28:23;;;;;;;13.43;7.28;;;;;;;;;;5037894;28;20513;-70
2022/01/24 00:30:50;;;;;;;16.33;8.63;;;;;;;;;;5048575;28;20029;-70
2022/01/24 00:33:18;;;;;;;16.70;8.52;;;;;;;;;;5018722;28;20017;-71
2022/01/24 00:35:44;;;;;;;14.23;8.30;;;;;;;;;;5025248;28;20058;-70
2022/01/24 00:38:10;;;;;;;12.18;7.68;;;;;;;;;;5044269;28;20404;-70
2022/01/24 00:40:41;;;;;;;19.40;9.10;;;;;;;;;;5035939;28;20083;-70
2022/01/24 00:43:22;;;;;;;;;;;;;;;;;;5019757;28;20017;-71
2022/01/24 00:56:03;;;;;;;14.23;7.90;;;;;;;;;;5043196;28;20529;-70
2022/01/24 00:58:29;;;;;;;12.93;8.30;;;;;;;;;;5036774;28;20079;-70
2022/01/24 01:00:55;;;;;;;12.55;7.75;;;;;;;;;;5048017;28;20029;-70
2022/01/24 01:03:24;;;;;;;13.77;8.52;;;;;;;;;;5036867;28;20016;-68
2022/01/24 01:06:03;;;;;;;11.75;7.38;;;;;;;;;;5041755;28;20018;-70
2022/01/24 01:19:29;;;;;;;12.77;7.65;;;;;;;;;;5038400;28;20036;-70
2022/01/24 01:21:55;;;;;;;10.60;7.22;;;;;;;;;;5041008;28;20041;-70
2022/01/24 01:24:23;;;;;;;14.05;8.30;;;;;;;;;;5045300;28;20025;-69
2022/01/24 01:26:55;;;;;;;12.30;7.60;;;;;;;;;;5034505;28;20483;-70
2022/01/24 01:29:32;;;;;;;12.50;7.68;;;;;;;;;;5045630;28;20022;-70
2022/01/24 01:32:13;;;;;;;11.38;7.75;;;;;;;;;;5041867;28;20103;-70
2022/01/24 01:56:33;;;;;;;9.65;5.93;;;;;;;;;;5035477;28;20044;-71
2022/01/24 01:58:59;;;;;;;10.02;6.63;;;;;;;;;;5050139;28;20037;-70
2022/01/24 02:01:25;;;;;;;11.65;7.22;;;;;;;;;;5040981;28;20107;-70
2022/01/24 02:03:54;;;;;;;9.82;6.55;;;;;;;;;;5051838;28;20466;-70
2022/01/24 02:06:20;;;;;;;10.32;6.43;;;;;;;;;;5041337;28;20021;-70
2022/01/24 02:08:46;;;;;;;9.68;6.03;;;;;;;;;;5051078;28;20044;-70
2022/01/24 02:11:16;;;;;;;11.15;6.28;;;;;;;;;;5039084;28;20550;-70
2022/01/24 02:13:42;;;;;;;10.35;7.38;;;;;;;;;;5046044;28;20021;-70
2022/01/24 02:16:20;;;;;;;9.77;5.82;;;;;;;;;;5046514;28;20028;-71
2022/01/24 02:19:07;;;;;;;11.02;6.90;;;;;;;;;;5037867;28;20087;-70
2022/01/24 02:24:52;;;;;;;10.15;6.85;;;;;;;;;;4968857;28;20086;-70
2022/01/24 02:27:18;;;;;;;11.20;6.57;;;;;;;;;;5019018;28;20514;-71
2022/01/24 02:32:13;;;;;;;11.57;6.35;;;;;;;;;;5047053;28;20022;-71
2022/01/24 02:34:42;;;;;;;11.02;6.60;;;;;;;;;;5037636;28;20029;-70
2022/01/24 02:37:10;;;;;;;8.93;6.28;;;;;;;;;;5022162;28;20021;-70
2022/01/24 02:50:27;;;;;;;12.98;5.97;;;;;;;;;;5047519;28;20059;-70
2022/01/24 02:52:54;;;;;;;9.13;5.15;;;;;;;;;;5036999;28;20028;-70
2022/01/24 02:55:20;;;;;;;14.77;7.25;;;;;;;;;;5048022;28;20100;-71
2022/01/24 02:57:46;;;;;;;10.63;6.60;;;;;;;;;;5024821;28;20547;-71
2022/01/24 03:00:12;;;;;;;11.38;6.90;;;;;;;;;;5041021;28;20029;-71
2022/01/24 03:02:38;;;;;;;10.70;6.22;;;;;;;;;;5029263;28;20033;-70
2022/01/24 03:05:04;;;;;;;11.20;6.78;;;;;;;;;;5049789;28;20040;-70
2022/01/24 03:07:31;;;;;;;8.50;5.65;;;;;;;;;;5040245;28;20021;-70
2022/01/24 03:10:00;;;;;;;7.47;4.95;;;;;;;;;;5042902;28;20105;-71
2022/01/24 03:12:44;;;;;;;10.93;6.70;;;;;;;;;;5047864;28;20501;-71
2022/01/24 03:15:11;;;;;;;10.25;5.65;;;;;;;;;;5021724;28;20021;-71
2022/01/24 03:17:37;;;;;;;6.43;4.75;;;;;;;;;;5045579;28;20399;-70
2022/01/24 03:20:04;;;;;;;8.52;4.82;;;;;;;;;;5044752;28;20071;-71
2022/01/24 03:22:30;;;;;;;8.23;4.93;;;;;;;;;;5038125;28;20028;-72
2022/01/24 03:24:56;;;;;;;9.73;5.18;;;;;;;;;;5049357;28;20033;-70
2022/01/24 03:27:22;;;;;;;9.25;5.45;;;;;;;;;;5020915;28;20074;-71
2022/01/24 03:29:48;;;;;;;7.97;5.25;;;;;;;;;;5043700;28;20097;-71
2022/01/24 03:32:14;;;;;;;10.20;5.53;;;;;;;;;;5045960;28;20025;-70
2022/01/24 03:34:40;;;;;;;9.27;5.50;;;;;;;;;;5018624;28;20026;-71
2022/01/24 03:37:07;;;;;;;10.80;5.40;;;;;;;;;;5020457;28;20021;-71
2022/01/24 03:39:33;;;;;;;9.70;5.07;;;;;;;;;;5046142;28;20106;-71
2022/01/24 03:41:59;;;;;;;10.27;5.70;;;;;;;;;;5033985;28;20040;-69
2022/01/24 03:44:26;;;;;;;10.20;5.65;;;;;;;;;;5038064;28;20029;-70
2022/01/24 03:52:09;;;;;;;12.18;5.63;;;;;;;;;;5040566;28;20394;-70
2022/01/24 03:54:36;;;;;;;10.20;5.90;;;;;;;;;;5048200;28;20092;-71
2022/01/24 03:57:03;;;;;;;14.48;8.10;;;;;;;;;;5035596;28;20040;-71
2022/01/24 03:59:30;;;;;;;10.68;6.05;;;;;;;;;;5040033;28;20026;-70
2022/01/24 04:01:56;;;;;;;12.05;5.88;;;;;;;;;;5033514;28;20021;-70
2022/01/24 04:04:22;;;;;;;10.18;5.70;;;;;;;;;;5031540;28;20032;-69
2022/01/24 04:06:49;;;;;;;11.40;6.82;;;;;;;;;;5035742;28;20483;-70
2022/01/24 04:09:15;;;;;;;10.10;6.13;;;;;;;;;;5047152;28;20063;-70
2022/01/24 04:11:41;;;;;;;10.55;6.07;;;;;;;;;;5039253;28;20025;-71
2022/01/24 04:14:26;;;;;;;8.75;5.97;;;;;;;;;;5040027;28;20088;-70
2022/01/24 04:22:13;;;;;;;8.57;5.68;;;;;;;;;;5039997;28;20029;-70
2022/01/24 04:24:40;;;;;;;11.07;5.95;;;;;;;;;;5030514;28;20043;-70
2022/01/24 04:27:06;;;;;;;9.75;5.93;;;;;;;;;;5019261;28;20445;-71
2022/01/24 04:29:33;;;;;;;9.07;5.85;;;;;;;;;;5044863;28;20479;-71
2022/01/24 04:31:59;;;;;;;11.35;6.72;;;;;;;;;;5042670;28;20025;-71
2022/01/24 04:34:25;;;;;;;14.02;8.07;;;;;;;;;;5019444;28;20026;-71
2022/01/24 04:36:51;;;;;;;12.75;7.40;;;;;;;;;;5048246;28;20025;-71
2022/01/24 04:39:17;;;;;;;11.27;6.88;;;;;;;;;;5037243;28;20406;-71
2022/01/24 04:41:47;;;;;;;11.52;7.72;;;;;;;;;;5043325;28;20101;-72
2022/01/24 04:47:01;;;;;;;10.68;6.85;;;;;;;;;;5035093;28;20034;-71
2022/01/24 04:54:44;;;;;;;12.85;7.65;;;;;;;;;;5034781;28;20025;-72
2022/01/24 04:57:15;;;;;;;11.75;7.40;;;;;;;;;;5047147;28;20025;-71
2022/01/24 04:59:42;;;;;;;14.43;9.32;;;;;;;;;;5039770;28;20017;-71
2022/01/24 05:02:08;;;;;;;15.98;9.20;;;;;;;;;;5039630;28;20407;-72
2022/01/24 05:04:36;;;;;;;15.75;10.00;;;;;;;;;;5047072;28;20032;-71
2022/01/24 05:07:02;;;;;;;18.48;11.13;;;;;;;;;;5034682;28;20066;-71
2022/01/24 05:09:33;;;;;;;19.33;10.93;;;;;;;;;;5044991;28;20290;-72
2022/01/24 05:12:10;;;;;;;20.58;11.98;;;;;;;;;;5024519;28;20018;-70
2022/01/24 05:25:34;;;;;;;17.17;10.13;;;;;;;;;;5042976;28;20086;-69
2022/01/24 05:28:00;;;;;;;17.45;9.70;;;;;;;;;;5044351;28;20113;-69
2022/01/24 05:30:26;;;;;;;14.32;8.85;;;;;;;;;;5049801;28;20523;-70
2022/01/24 05:32:52;;;;;;;16.88;10.10;;;;;;;;;;5038406;28;20036;-70
2022/01/24 05:35:18;;;;;;;14.02;9.40;;;;;;;;;;5049948;28;20057;-70
2022/01/24 05:37:44;;;;;;;16.65;11.02;;;;;;;;;;5044178;28;20024;-70
2022/01/24 05:40:10;;;;;;;13.93;9.45;;;;;;;;;;5042790;28;20498;-70
2022/01/24 05:42:36;;;;;;;17.45;10.32;;;;;;;;;;5033131;28;20052;-70
2022/01/24 05:45:03;;;;;;;15.25;9.45;;;;;;;;;;5038163;28;20025;-70
2022/01/24 05:47:29;;;;;;;15.82;9.40;;;;;;;;;;5048078;28;20064;-70
2022/01/24 05:49:55;;;;;;;11.93;8.02;;;;;;;;;;5045522;28;20064;-70
2022/01/24 05:52:21;;;;;;;13.70;9.00;;;;;;;;;;5041032;28;20097;-70
2022/01/24 05:54:47;;;;;;;13.27;8.65;;;;;;;;;;5051185;28;20024;-69
2022/01/24 05:57:13;;;;;;;13.32;8.05;;;;;;;;;;5052976;22;20049;-70
2022/01/24 05:59:40;;;;;;;12.45;7.72;;;;;;;;;;5028322;28;20495;-70
2022/01/24 06:02:06;;;;;;;14.13;8.35;;;;;;;;;;5037799;28;20499;-69
2022/01/24 06:04:32;;;;;;;12.18;8.18;;;;;;;;;;5035229;28;20025;-70
2022/01/24 06:06:58;;;;;;;12.70;8.90;;;;;;;;;;5015676;28;20021;-70
2022/01/24 06:09:24;;;;;;;11.07;7.80;;;;;;;;;;5003330;28;20029;-68
2022/01/24 06:11:51;;;;;;;14.07;9.15;;;;;;;;;;5022015;28;20017;-69
2022/01/24 06:14:17;;;;;;;15.63;9.73;;;;;;;;;;5035728;28;20057;-70
2022/01/24 06:16:43;;;;;;;14.88;9.80;;;;;;;;;;5020389;28;20037;-71
2022/01/24 06:19:09;;;;;;;16.33;9.52;;;;;;;;;;5033808;28;20092;-70
2022/01/24 06:21:36;;;;;;;14.18;8.70;;;;;;;;;;5007775;28;20026;-70
2022/01/24 06:24:03;;;;;;;13.93;8.60;;;;;;;;;;5006388;28;20034;-69
2022/01/24 06:26:29;;;;;;;13.73;8.20;;;;;;;;;;5029743;28;20026;-70
2022/01/24 06:28:55;;;;;;;11.48;7.15;;;;;;;;;;4999953;28;20512;-70
2022/01/24 06:31:21;;;;;;;11.35;7.40;;;;;;;;;;5028200;28;20033;-69
2022/01/24 06:33:51;;;;;;;15.68;9.27;;;;;;;;;;5022745;28;20032;-70
2022/01/24 06:36:18;;;;;;;15.32;9.68;;;;;;;;;;5020413;28;20475;-70
2022/01/24 06:38:44;;;;;;;15.95;8.77;;;;;;;;;;5012185;28;20042;-70
2022/01/24 06:41:10;;;;;;;17.70;9.98;;;;;;;;;;5017873;28;20079;-71
2022/01/24 06:43:36;;;;;;;15.48;9.00;;;;;;;;;;5025928;28;20476;-70
2022/01/24 06:46:02;;;;;;;14.00;9.82;;;;;;;;;;5024910;28;20083;-69
2022/01/24 06:48:28;;;;;;;14.65;9.13;;;;;;;;;;5018768;28;20018;-69
2022/01/24 06:50:54;;;;;;;17.52;10.93;;;;;;;;;;5030074;28;20036;-69
2022/01/24 06:53:20;;;;;;;14.25;9.93;;;;;;;;;;5001478;28;20051;-71
2022/01/24 06:55:46;;;;;;;17.33;10.45;;;;;;;;;;5024499;28;20464;-71
2022/01/24 06:58:12;;;;;;;14.55;9.63;;;;;;;;;;5025932;28;20128;-68
2022/01/24 07:00:38;;;;;;;19.25;11.43;;;;;;;;;;5017367;28;20022;-69
2022/01/24 07:03:04;;;;;;;14.95;10.25;;;;;;;;;;5033052;28;20017;-70
2022/01/24 07:05:31;;;;;;;13.07;9.55;;;;;;;;;;5033416;28;20490;-70
2022/01/24 07:07:59;;;;;;;16.35;10.98;;;;;;;;;;5005197;28;20034;-71
2022/01/24 07:10:26;;;;;;;19.35;11.73;;;;;;;;;;5027810;28;20475;-70
2022/01/24 07:12:52;;;;;;;18.00;11.68;;;;;;;;;;5016654;28;20030;-70
2022/01/24 07:15:20;;;;;;;15.43;11.18;;;;;;;;;;5022269;28;20040;-70
2022/01/24 07:18:56;;;;;;;17.38;12.20;;;;;;;;;;5022450;28;20013;-70
2022/01/24 07:20:47;;;;;;;15.02;11.13;;;;;;;;;;5016632;28;20554;-70
2022/01/24 07:23:13;;;;;;;14.40;10.40;;;;;;;;;;5028451;28;20034;-70
2022/01/24 07:25:39;;;;;;;13.07;8.93;;;;;;;;;;5021239;28;20021;-69
2022/01/24 07:28:05;;;;;;;13.35;8.60;;;;;;;;;;5021413;28;20467;-75
2022/01/24 07:30:31;;;;;;;14.52;8.88;;;;;;;;;;5026438;28;20028;-70
2022/01/24 07:32:57;;;;;;;11.52;8.43;;;;;;;;;;5031582;28;20366;-73
2022/01/24 07:35:23;;;;;;;15.95;9.48;;;;;;;;;;5027226;28;20515;-70
2022/01/24 07:37:49;;;;;;;13.18;7.93;;;;;;;;;;5022730;28;20021;-73
2022/01/24 07:40:15;;;;;;;13.98;9.13;;;;;;;;;;5002810;28;20065;-74
2022/01/24 07:45:41;;;;;;;11.55;8.40;;;;;;;;;;4988332;28;20523;-73
2022/01/24 07:48:08;;;;;;;8.68;6.40;;;;;;;;;;5033708;28;20379;-74
2022/01/24 07:50:36;;;;;;;10.75;7.10;;;;;;;;;;4999486;28;20068;-73
2022/01/24 07:53:03;;;;;;;11.57;7.63;;;;;;;;;;5029097;28;20017;-73
2022/01/24 07:55:29;;;;;;;8.80;6.25;;;;;;;;;;5019505;28;20027;-72
2022/01/24 07:57:56;;;;;;;8.27;6.13;;;;;;;;;;5003511;28;20511;-72
2022/01/24 08:00:21;;;;;;;9.30;5.97;;;;;;;;;;5026466;28;20033;-73
2022/01/24 08:02:47;;;;;;;6.53;5.32;;;;;;;;;;5019454;28;20036;-72
2022/01/24 08:05:14;;;;;;;8.60;5.72;;;;;;;;;;5029882;28;20376;-71
2022/01/24 08:07:40;;;;;;;6.07;5.00;;;;;;;;;;5024810;28;20022;-73
2022/01/24 08:10:07;;;;;;;7.45;5.40;;;;;;;;;;5024553;28;20130;-72
2022/01/24 08:12:34;;;;;;;10.18;6.97;;;;;;;;;;4999596;28;20444;-71
2022/01/24 08:15:02;;;;;;;9.95;7.25;;;;;;;;;;5011134;28;20021;-73
2022/01/24 08:17:28;;;;;;;12.15;8.32;;;;;;;;;;5017010;28;20079;-75
2022/01/24 08:19:54;;;;;;;18.42;11.95;;;;;;;;;;5026003;28;20041;-73
2022/01/24 08:22:20;;;;;;;13.82;9.80;;;;;;;;;;5032624;28;20025;-73
2022/01/24 08:24:47;;;;;;;12.27;9.63;;;;;;;;;;5032226;28;20438;-74
2022/01/24 08:27:15;;;;;;;16.17;9.73;;;;;;;;;;5026823;28;20025;-72
2022/01/24 08:29:43;;;;;;;11.27;8.70;;;;;;;;;;5013437;28;20017;-70
2022/01/24 08:32:09;;;;;;;12.75;9.00;;;;;;;;;;5031744;28;20107;-75
2022/01/24 08:34:35;;;;;;;10.75;8.23;;;;;;;;;;5029199;28;20033;-72
2022/01/24 08:37:01;;;;;;;15.80;9.50;;;;;;;;;;5032191;28;20026;-75
2022/01/24 08:39:27;;;;;;;11.27;9.02;;;;;;;;;;5027948;28;20030;-75
2022/01/24 08:44:33;;;;;;;15.02;9.73;;;;;;;;;;5033659;28;20430;-75
2022/01/24 08:46:59;;;;;;;13.85;9.50;;;;;;;;;;5026591;28;20057;-73
2022/01/24 08:49:25;;;;;;;13.20;9.90;;;;;;;;;;5000686;28;20029;-75
2022/01/24 08:51:51;;;;;;;21.60;13.18;;;;;;;;;;5025804;28;20045;-73
2022/01/24 08:54:17;;;;;;;16.60;10.35;;;;;;;;;;5016693;28;20105;-74
2022/01/24 08:56:45;;;;;;;17.08;10.68;;;;;;;;;;5010228;28;20034;-74
2022/01/24 08:59:12;;;;;;;16.67;10.63;;;;;;;;;;5017746;28;20026;-73
2022/01/24 09:01:38;;;;;;;14.30;10.00;;;;;;;;;;5031709;28;20029;-74
2022/01/24 09:04:04;;;;;;;13.32;9.35;;;;;;;;;;5031745;28;20105;-69
2022/01/24 09:06:30;;;;;;;11.63;7.78;;;;;;;;;;5030464;28;20164;-70
2022/01/24 09:09:01;;;;;;;11.55;8.40;;;;;;;;;;5029685;28;20399;-75
2022/01/24 09:11:28;;;;;;;16.20;10.20;;;;;;;;;;5031626;28;20387;-72
2022/01/24 09:13:54;;;;;;;15.57;8.82;;;;;;;;;;5030813;28;20118;-72
2022/01/24 09:16:20;;;;;;;14.68;9.23;;;;;;;;;;5030386;28;20033;-72
2022/01/24 09:18:46;;;;;;;16.85;10.65;;;;;;;;;;5030200;28;20209;-72
2022/01/24 09:21:12;;;;;;;12.20;8.05;;;;;;;;;;5029784;28;20527;-72
2022/01/24 09:23:38;;;;;;;9.43;6.72;;;;;;;;;;5029329;28;20029;-71
2022/01/24 09:26:04;;;;;;;10.23;6.97;;;;;;;;;;5028821;28;20458;-72
2022/01/24 09:28:30;;;;;;;9.98;7.00;;;;;;;;;;5030844;28;20105;-72
2022/01/24 09:30:57;;;;;;;10.40;6.90;;;;;;;;;;5031373;28;20029;-72
2022/01/24 09:33:23;;;;;;;11.73;7.93;;;;;;;;;;5031251;28;20454;-71
2022/01/24 09:35:49;;;;;;;18.10;10.63;;;;;;;;;;5031753;28;20022;-72
2022/01/24 09:38:16;;;;;;;8.02;5.70;;;;;;;;;;5031348;28;20143;-71
2022/01/24 09:40:42;;;;;;;15.63;9.68;;;;;;;;;;5013724;28;20031;-71
2022/01/24 09:43:08;;;;;;;17.20;10.30;;;;;;;;;;5031376;28;20025;-70
2022/01/24 09:45:34;;;;;;;8.02;5.60;;;;;;;;;;5013763;28;20173;-70
2022/01/24 09:48:01;;;;;;;19.40;11.10;;;;;;;;;;5031345;28;20018;-71
2022/01/24 09:50:27;;;;;;;20.75;11.80;;;;;;;;;;5031503;28;20084;-71
2022/01/24 09:52:53;;;;;;;12.02;8.40;;;;;;;;;;5031398;28;20026;-70
2022/01/24 09:55:21;;;;;;;11.88;7.88;;;;;;;;;;5031181;28;20026;-71
2022/01/24 09:57:47;;;;;;;11.90;8.30;;;;;;;;;;5031014;28;20033;-72
2022/01/24 10:00:15;;;;;;;11.63;6.60;;;;;;;;;;5031355;28;20068;-71
2022/01/24 10:02:41;;;;;;;12.70;7.40;;;;;;;;;;5031158;28;20475;-72
2022/01/24 10:05:13;;;;;;;9.98;6.30;;;;;;;;;;5031076;28;20510;-71
2022/01/24 10:07:39;;;;;;;14.90;8.90;;;;;;;;;;5032808;28;20029;-71
2022/01/24 10:10:06;;;;;;;7.25;5.13;;;;;;;;;;5034822;28;20021;-71
2022/01/24 10:17:48;;;;;;;16.70;10.77;;;;;;;;;;5033563;28;20454;-72
2022/01/24 10:20:17;;;;;;;13.10;7.88;;;;;;;;;;5034828;28;20037;-71
2022/01/24 10:22:43;;;;;;;35.40;12.88;;;;;;;;;;5034742;28;20026;-71
2022/01/24 10:25:10;;;;;;;16.23;8.82;;;;;;;;;;5034614;28;20022;-71
2022/01/24 10:27:35;;;;;;;14.82;9.25;;;;;;;;;;5034646;28;20032;-71
2022/01/24 10:30:08;;;;;;;16.52;9.68;;;;;;;;;;5034606;28;20033;-71
2022/01/24 10:32:44;;;;;;;10.45;6.00;;;;;;;;;;5034628;28;20034;-71
2022/01/24 10:35:19;;;;;;;5.18;4.20;;;;;;;;;;5034455;28;20071;-70
2022/01/24 10:37:49;;;;;;;7.47;4.45;;;;;;;;;;5016722;28;20066;-72
2022/01/24 10:40:30;;;;;;;6.10;4.20;;;;;;;;;;5034560;28;20025;-71
2022/01/24 10:43:15;;;;;;;9.20;5.47;;;;;;;;;;5034281;28;20079;-71
2022/01/24 10:45:45;;;;;;;8.13;4.60;;;;;;;;;;5016227;28;20491;-71
2022/01/24 10:48:11;;;;;;;6.93;4.70;;;;;;;;;;5034146;28;20498;-71
2022/01/24 10:50:37;;;;;;;9.40;4.63;;;;;;;;;;5034203;28;20025;-71
2022/01/24 10:53:10;;;;;;;9.35;5.57;;;;;;;;;;5015944;28;20020;-72
2022/01/24 10:55:36;;;;;;;8.35;5.53;;;;;;;;;;5016198;28;20119;-70
2022/01/24 10:58:07;;;;;;;5.95;4.65;;;;;;;;;;5016033;28;20037;-72
2022/01/24 11:00:34;;;;;;;6.70;5.30;;;;;;;;;;5016463;28;20025;-71
2022/01/24 11:03:01;;;;;;;13.68;7.65;;;;;;;;;;5033779;28;20113;-73
2022/01/24 11:05:28;;;;;;;8.43;5.40;;;;;;;;;;5033823;28;20364;-70
2022/01/24 11:07:54;;;;;;;6.53;5.28;;;;;;;;;;5033772;28;20036;-72
2022/01/24 11:10:21;;;;;;;6.70;4.72;;;;;;;;;;5034169;28;20093;-72
2022/01/24 11:12:47;;;;;;;7.38;5.35;;;;;;;;;;5033320;28;20072;-72
2022/01/24 11:15:14;;;;;;;9.07;4.90;;;;;;;;;;5033416;28;20022;-72
2022/01/24 11:17:41;;;;;;;3.50;2.40;;;;;;;;;;5033500;28;20052;-71
2022/01/24 11:20:11;;;;;;;1.80;1.50;;;;;;;;;;5033941;28;20249;-71
2022/01/24 11:22:44;;;;;;;6.85;3.50;;;;;;;;;;5015863;28;20502;-71
2022/01/24 11:25:10;;;;;;;10.40;5.40;;;;;;;;;;5033316;28;20025;-71
2022/01/24 11:27:37;;;;;;;10.32;5.47;;;;;;;;;;5015496;28;20018;-67
2022/01/24 11:30:09;;;;;;;2.60;2.00;;;;;;;;;;5033292;28;20036;-71
2022/01/24 11:32:36;;;;;;;;;;;;;;;;;;5034172;28;20022;-71
2022/01/24 11:35:02;;;;;;;2.45;1.90;;;;;;;;;;5033197;28;19905;-71
2022/01/24 11:37:34;;;;;;;2.00;1.80;;;;;;;;;;5033125;28;20018;-71
2022/01/24 11:40:01;;;;;;;6.60;3.95;;;;;;;;;;5033189;28;20025;-71
2022/01/24 11:42:32;;;;;;;7.25;4.03;;;;;;;;;;5033070;28;20026;-72
2022/01/24 11:45:04;;;;;;;3.05;1.90;;;;;;;;;;5015076;28;20021;-72
2022/01/24 11:47:31;;;;;;;8.48;4.25;;;;;;;;;;5032796;28;20071;-71
2022/01/24 11:49:57;;;;;;;4.53;2.97;;;;;;;;;;5033062;28;20535;-71
2022/01/24 11:52:31;;;;;;;5.05;3.83;;;;;;;;;;5032701;28;20025;-69
2022/01/24 11:55:16;;;;;;;16.42;9.27;;;;;;;;;;5032723;28;20483;-71
2022/01/24 11:57:49;;;;;;;9.15;5.28;;;;;;;;;;5055356;22;20049;-73
2022/01/24 12:00:15;;;;;;;3.90;2.83;;;;;;;;;;5032928;28;20104;-73
2022/01/24 12:02:42;;;;;;;7.40;5.00;;;;;;;;;;5032725;28;20459;-72
2022/01/24 12:05:13;;;;;;;4.93;2.55;;;;;;;;;;5032856;28;20053;-72
2022/01/24 12:07:47;;;;;;;4.28;2.40;;;;;;;;;;5015055;28;20024;-73
2022/01/24 12:10:26;;;;;;;7.75;4.18;;;;;;;;;;5032582;28;20022;-73
2022/01/24 12:12:56;;;;;;;2.00;1.60;;;;;;;;;;5032334;28;20057;-73
2022/01/24 12:15:37;;;;;;;2.42;1.80;;;;;;;;;;5032420;28;20031;-73
2022/01/24 12:18:04;;;;;;;1.73;1.50;;;;;;;;;;5032324;28;20027;-72
2022/01/24 12:20:35;;;;;;;2.78;2.40;;;;;;;;;;5032283;28;20053;-72
2022/01/24 12:23:16;;;;;;;5.47;3.53;;;;;;;;;;5032137;28;20031;-73
2022/01/24 12:25:48;;;;;;;2.25;1.80;;;;;;;;;;5032545;28;20044;-72
2022/01/24 12:28:23;;;;;;;3.33;2.38;;;;;;;;;;5032293;28;20029;-72
2022/01/24 12:31:10;;;;;;;8.00;2.20;;;;;;;;;;5031667;28;20388;-73
2022/01/24 12:33:43;;;;;;;2.72;2.10;;;;;;;;;;5032064;28;20410;-71
2022/01/24 12:36:14;;;;;;;2.67;2.35;;;;;;;;;;5032282;28;20484;-73
2022/01/24 12:38:47;;;;;;;3.45;2.38;;;;;;;;;;5014497;28;20030;-72
2022/01/24 12:41:17;;;;;;;13.77;6.90;;;;;;;;;;5032505;28;20518;-73
2022/01/24 12:43:56;;;;;;;9.05;4.88;;;;;;;;;;5032211;28;20021;-73
2022/01/24 12:46:25;;;;;;;5.88;3.58;;;;;;;;;;5032155;28;20028;-73
2022/01/24 12:48:51;;;;;;;9.23;4.78;;;;;;;;;;5032098;28;20442;-73
2022/01/24 12:51:21;;;;;;;7.60;5.00;;;;;;;;;;5032101;28;20021;-74
2022/01/24 12:53:48;;;;;;;7.47;4.75;;;;;;;;;;5013968;28;20064;-74
2022/01/24 12:56:16;;;;;;;4.10;2.78;;;;;;;;;;5031583;28;20025;-73
2022/01/24 12:58:43;;;;;;;2.38;2.00;;;;;;;;;;5031694;28;20021;-72
2022/01/24 13:01:18;;;;;;;3.20;2.17;;;;;;;;;;5031642;28;20029;-72
2022/01/24 13:03:52;;;;;;;3.42;2.38;;;;;;;;;;5031596;28;20079;-73
2022/01/24 13:06:19;;;;;;;4.22;2.47;;;;;;;;;;5014054;28;20030;-72
2022/01/24 13:08:52;;;;;;;3.60;2.53;;;;;;;;;;5014439;28;20112;-73
2022/01/24 13:11:18;;;;;;;2.22;1.95;;;;;;;;;;5031733;28;20029;-73
2022/01/24 13:14:06;;;;;;;2.92;2.22;;;;;;;;;;5031732;28;20448;-73
2022/01/24 13:22:32;;;;;;;3.47;2.33;;;;;;;;;;5031860;28;20068;-73
2022/01/24 13:25:06;;;;;;;2.47;1.70;;;;;;;;;;5031606;28;20029;-73
2022/01/24 13:27:41;;;;;;;1.88;1.67;;;;;;;;;;5031562;28;20037;-73
2022/01/24 13:30:09;;;;;;;2.03;1.50;;;;;;;;;;5031489;28;20025;-73
2022/01/24 13:32:42;;;;;;;2.25;1.75;;;;;;;;;;5013833;28;20098;-73
2022/01/24 13:35:14;;;;;;;2.03;1.50;;;;;;;;;;5013955;28;20158;-73
2022/01/24 13:37:40;;;;;;;2.20;1.90;;;;;;;;;;5032029;28;20026;-71
2022/01/24 13:40:06;;;;;;;3.30;1.92;;;;;;;;;;5031430;28;20242;-73
2022/01/24 13:42:36;;;;;;;2.22;1.67;;;;;;;;;;5033023;28;20026;-74
2022/01/24 13:45:02;;;;;;;2.38;1.83;;;;;;;;;;5035360;28;20025;-73
2022/01/24 13:47:28;;;;;;;2.88;1.80;;;;;;;;;;5035487;28;20116;-73
2022/01/24 13:49:54;;;;;;;2.40;1.58;;;;;;;;;;5035056;28;20103;-73
2022/01/24 13:52:21;;;;;;;2.08;1.80;;;;;;;;;;5035585;28;20036;-72
2022/01/24 13:54:47;;;;;;;2.17;1.77;;;;;;;;;;5034852;28;20026;-73
2022/01/24 13:57:20;;;;;;;1.75;1.52;;;;;;;;;;5034776;28;20514;-72
2022/01/24 13:59:46;;;;;;;1.67;1.58;;;;;;;;;;5035342;28;20036;-73
2022/01/24 14:02:13;;;;;;;5.05;2.20;;;;;;;;;;5035037;28;20369;-72
2022/01/24 14:04:42;;;;;;;2.97;2.15;;;;;;;;;;5034938;28;20037;-72
2022/01/24 14:07:12;;;;;;;3.08;2.20;;;;;;;;;;5035053;28;20100;-73
2022/01/24 14:09:40;;;;;;;5.03;2.40;;;;;;;;;;5034694;28;20021;-73
2022/01/24 14:12:08;;;;;;;2.83;2.20;;;;;;;;;;5034779;28;20025;-72
2022/01/24 14:14:45;;;;;;;4.70;2.55;;;;;;;;;;5034275;28;20251;-71
2022/01/24 14:19:39;;;;;;;2.83;2.28;;;;;;;;;;5034902;28;20034;-72
2022/01/24 14:22:10;;;;;;;2.97;2.67;;;;;;;;;;5034782;28;20032;-71
2022/01/24 14:24:50;;;;;;;4.88;2.67;;;;;;;;;;5034732;28;20033;-73
2022/01/24 14:27:35;;;;;;;3.40;2.20;;;;;;;;;;5034861;28;20033;-74
2022/01/24 14:30:09;;;;;;;2.80;2.30;;;;;;;;;;5016998;28;20068;-73
2022/01/24 14:32:38;;;;;;;3.20;2.20;;;;;;;;;;5016985;28;20026;-72
2022/01/24 14:35:06;;;;;;;3.42;2.67;;;;;;;;;;5034637;28;20029;-72
2022/01/24 14:37:44;;;;;;;4.20;2.53;;;;;;;;;;5034150;28;20212;-73
2022/01/24 14:40:13;;;;;;;4.10;2.85;;;;;;;;;;5034365;28;20025;-73
2022/01/24 14:42:46;;;;;;;3.67;2.47;;;;;;;;;;5033996;28;20021;-73
2022/01/24 14:45:12;;;;;;;5.82;3.75;;;;;;;;;;5034393;28;20029;-70
2022/01/24 14:47:38;;;;;;;4.88;3.40;;;;;;;;;;5034466;28;20021;-72
2022/01/24 14:50:04;;;;;;;4.40;2.97;;;;;;;;;;5033892;28;20025;-72
2022/01/24 14:52:35;;;;;;;3.95;2.88;;;;;;;;;;5033681;28;20507;-73
2022/01/24 14:55:00;;;;;;;4.63;3.10;;;;;;;;;;5014910;28;20368;-73
2022/01/24 14:57:26;;;;;;;4.65;2.55;;;;;;;;;;5031711;28;20275;-73
2022/01/24 14:59:52;;;;;;;5.07;2.80;;;;;;;;;;5031841;28;20033;-73
2022/01/24 15:02:18;;;;;;;3.75;2.90;;;;;;;;;;5031876;28;20541;-73
2022/01/24 15:04:45;;;;;;;5.10;3.30;;;;;;;;;;5014029;28;20273;-72
2022/01/24 15:07:12;;;;;;;5.25;3.45;;;;;;;;;;5031664;28;20033;-72
2022/01/24 15:09:39;;;;;;;7.68;3.20;;;;;;;;;;5032349;28;20125;-75
2022/01/24 15:12:07;;;;;;;5.03;3.70;;;;;;;;;;5033885;28;20108;-73
2022/01/24 15:14:37;;;;;;;8.63;4.07;;;;;;;;;;5033463;28;20022;-74
2022/01/24 15:25:20;;;;;;;6.50;3.80;;;;;;;;;;5033898;28;20124;-72
2022/01/24 15:27:48;;;;;;;6.35;4.60;;;;;;;;;;5033763;28;20034;-72
2022/01/24 15:30:16;;;;;;;7.55;5.32;;;;;;;;;;5033943;28;20045;-73
2022/01/24 15:32:42;;;;;;;9.00;4.78;;;;;;;;;;5033828;28;20029;-73
2022/01/24 15:35:09;;;;;;;6.78;4.45;;;;;;;;;;5015704;28;20023;-72
2022/01/24 15:37:35;;;;;;;7.55;4.53;;;;;;;;;;5033414;28;20048;-73
2022/01/24 15:40:01;;;;;;;7.05;4.60;;;;;;;;;;5033462;28;20021;-73
2022/01/24 15:47:47;;;;;;;42.10;22.13;;;;;;;;;;5033306;28;20021;-75
2022/01/24 15:50:14;;;;;;;17.58;9.73;;;;;;;;;;5033005;28;20029;-73
2022/01/24 15:52:41;;;;;;;6.45;3.90;;;;;;;;;;5015235;28;20060;-72
2022/01/24 15:55:08;;;;;;;4.25;3.00;;;;;;;;;;5015257;28;20026;-72
2022/01/24 15:57:44;;;;;;;5.82;2.58;;;;;;;;;;5014896;28;20045;-74
2022/01/24 16:00:15;;;;;;;3.97;2.58;;;;;;;;;;5014996;28;20451;-72
2022/01/24 16:02:42;;;;;;;;;;;;;;;;;;5033277;28;20108;-72
2022/01/24 16:05:08;;;;;;;15.90;8.07;;;;;;;;;;5032199;28;20239;-72
2022/01/24 16:07:36;;;;;;;22.60;10.98;;;;;;;;;;5032653;28;20440;-74
2022/01/24 16:10:02;;;;;;;12.48;6.15;;;;;;;;;;5033042;28;20018;-72
2022/01/24 16:12:28;;;;;;;9.75;4.28;;;;;;;;;;5032702;28;20032;-71
2022/01/24 16:14:54;;;;;;;4.63;2.60;;;;;;;;;;5014871;28;20030;-73
2022/01/24 16:17:20;;;;;;;4.30;2.85;;;;;;;;;;5023534;28;20045;-73
2022/01/24 16:19:52;;;;;;;3.25;2.22;;;;;;;;;;5031016;28;20037;-72
2022/01/24 16:22:33;;;;;;;5.20;3.15;;;;;;;;;;5014136;28;20056;-73
2022/01/24 16:27:44;;;;;;;9.38;4.28;;;;;;;;;;5033149;28;20037;-74
2022/01/24 16:30:10;;;;;;;7.05;3.47;;;;;;;;;;5032849;28;20021;-72
2022/01/24 16:32:36;;;;;;;7.38;4.35;;;;;;;;;;5032936;28;20048;-73
2022/01/24 16:35:03;;;;;;;11.25;5.90;;;;;;;;;;5032859;28;20029;-74
2022/01/24 16:37:34;;;;;;;19.77;9.68;;;;;;;;;;5032759;28;20025;-72
2022/01/24 16:40:00;;;;;;;;;;;;;;;;;;5033214;28;20041;-73
2022/01/24 16:42:26;;;;;;;8.95;4.63;;;;;;;;;;5032454;28;19911;-73
2022/01/24 16:45:14;;;;;;;10.35;4.10;;;;;;;;;;5032317;28;20081;-73
2022/01/24 16:47:40;;;;;;;7.30;3.42;;;;;;;;;;5032203;28;20026;-74
2022/01/24 16:50:06;;;;;;;7.13;4.68;;;;;;;;;;5032400;28;20025;-73
2022/01/24 16:52:32;;;;;;;6.30;3.90;;;;;;;;;;5032118;28;20372;-72
2022/01/24 16:54:58;;;;;;;6.63;4.03;;;;;;;;;;5031931;28;20495;-74